Jesus Teran International Airport
MMAS : now visible

Airfield :











YOU CAN JOIN US ON...

 
LOGIN :

Register | Disclaimer

   EN    FR    IT 

 









Legend :    VFR   Marginal VFR   IFR   Intensive IFR   Very Intensive IFR
Visi :
Ceiling :
>= 8 km
>= 3000ft
5 to 8 km
1000 to 3000 ft
1500m to 5 km
500 to 1000 ft
800 to 1500m
200 to 500 ft
< 800m
< 200 ft
Symbols :   Thunderstorms  Fog  Heavy snow  Heavy precipitations  Wind > 20 kt






- Airport Elevation : 6112 ft
- IATA code : AGU


MMAS - Jesus Teran International

CURRENT METAR :
  • 051640Z 00000KT 10SM SKC 20/03 A3035

EXPIRED METARs :
  • 051542Z 33003KT 10SM SKC 16/02 A3036
  • 051440Z 35006KT 10SM SKC 12/02 A3035 RMK SLP/// HZY

TAF TAF MMAS
Valid from the 05 at 06:00 until the 06 at 06:00 UTC


050451Z 0506/0606 14005KT P6SM SKC
FM051800 33010KT P6SM SKC
FM060400 33005KT P6SM SKC



MET'MAP, your aeronautical weather chart ! - Copyright ORBIFLY December 2007 - Disclaimer

ORBIFLY MET'MAP TEAM :

Programming & Development : Alexandra Zaïnal
Concept & original design : Baudouin d'Aumeries
Assistance for programming : Marc-Olivier Méhu
Technical & hardware support : Manuel Goepfert

Contact : metmap@orbifly.com




SOURCES & CREDITS :

   NOAA       Earth
Advisory